Aeroporto :
LOGIN :

Iscrizione | Disclaimer

   EN    FR    IT 

 










Sommario :    VFR   VFR Marginale   IFR   IFR Intensivo   IFR Molto Intensivo
Visibilità : 
Base nubi : 
>= 8 km
>= 3000ft
5 / 8 km
1000 / 3000 ft
1500m / 5 km
500 / 1000 ft
800 / 1500m
200 / 500 ft
< 800m
< 200 ft
Simboli :   Temporali  Nebbia  Neve Forte  Precipitazioni Forti  Vento > 20 kt
SIGMETs :   Varie  Temporali  Ghiacco  Turbolenza  Onda orograficha  Ceneri Vulcaniche






- Altitudine del aeroporto : 353 ft
- Codice IATA : LIN


LIML - Milano Linate

ULTIMO METAR :
  • 131020Z 28005KT 190V330 9999 SCT045 28/20 Q1010 NOSIG

METARs OBSOLETI :
  • 130950Z 26004KT 180V330 9999 SCT045 27/20 Q1010 NOSIG
  • 130920Z 25004KT 200V330 9999 FEW015 SCT050 27/20 Q1010 NOSIG
  • 130850Z VRB03KT 9999 FEW015 BKN045 26/20 Q1010 NOSIG
  • 130820Z VRB02KT 9999 FEW015 SCT045 25/20 Q1010 NOSIG
  • 130750Z VRB02KT 9999 FEW010 BKN045 25/22 Q1010 NOSIG
  • 130720Z VRB02KT 9999 FEW010 SCT030 25/21 Q1010 NOSIG
  • 130650Z VRB02KT 9999 SCT030 25/21 Q1010 NOSIG
  • 130620Z 12003KT 070V170 9999 BKN040 23/21 Q1010 NOSIG
  • 130550Z VRB01KT 9999 BKN050 24/21 Q1010 NOSIG

TAF TAF LIML
Valido dal 13 a 06 ore il 14 a 06 ore UTC


130500Z 1306/1406 VRB05KT 9999 SCT050



MetMap, La meteo Aeronautica in un colpo d'occhio ! - Copyright ORBIFLY Dicembre 2007 - Disclaimer

ORBIFLY MET'MAP TEAM :

Programmazione e sviluppo : Alexandra Zaïnal
Concezione : Baudouin d'Aumeries
Supporto tecnico e logistico : Manuel Goepfert
Aiuto : Marc-Olivier Méhu
Aiuto per la traduzione : Arnaldo La Scala




FONTI E CREDITI :

   NOAA